createdAt,value
2023-03-17T00:01:56.119Z,9.57
2023-03-17T00:04:26.452Z,12.65
2023-03-17T00:06:54.949Z,12.38
2023-03-17T00:09:23.097Z,10.77
2023-03-17T00:11:50.857Z,14.05
2023-03-17T00:14:19.788Z,15.90
2023-03-17T00:16:52.738Z,14.35
2023-03-17T00:19:28.052Z,12.88
2023-03-17T00:21:56.247Z,9.45
2023-03-17T00:24:23.878Z,10.43
2023-03-17T00:26:51.325Z,13.38
2023-03-17T00:29:19.096Z,12.05
2023-03-17T00:31:46.979Z,11.13
2023-03-17T00:34:19.037Z,9.25
2023-03-17T00:36:50.821Z,11.38
2023-03-17T00:39:18.911Z,11.85
2023-03-17T00:44:13.330Z,9.38
2023-03-17T00:46:41.661Z,10.95
2023-03-17T00:51:45.074Z,11.13
2023-03-17T00:54:13.784Z,12.30
2023-03-17T00:56:43.825Z,10.25
2023-03-17T00:59:37.267Z,8.88
2023-03-17T01:02:06.242Z,7.60
2023-03-17T01:04:35.219Z,11.05
2023-03-17T01:07:03.382Z,10.70
2023-03-17T01:09:30.967Z,10.77
2023-03-17T01:11:58.396Z,10.35
2023-03-17T01:14:26.064Z,13.00
2023-03-17T01:16:55.106Z,9.50
2023-03-17T01:19:23.726Z,13.80
2023-03-17T01:21:51.183Z,11.35
2023-03-17T01:24:18.757Z,10.77
2023-03-17T01:26:46.831Z,14.60
2023-03-17T01:29:14.933Z,8.70
2023-03-17T01:31:42.728Z,9.73
2023-03-17T01:34:11.606Z,11.27
2023-03-17T01:36:39.035Z,12.80
2023-03-17T01:39:07.308Z,9.90
2023-03-17T01:41:37.602Z,10.30
2023-03-17T01:44:05.215Z,7.22
2023-03-17T01:46:34.923Z,8.93
2023-03-17T01:49:17.919Z,12.10
2023-03-17T01:51:57.653Z,11.68
2023-03-17T01:54:50.452Z,9.70
2023-03-17T01:57:31.456Z,12.18
2023-03-17T02:00:08.642Z,10.00
2023-03-17T02:02:45.271Z,7.70
2023-03-17T02:05:17.063Z,10.20
2023-03-17T02:07:46.321Z,15.38
2023-03-17T02:10:16.295Z,9.48
2023-03-17T02:12:45.860Z,9.25
2023-03-17T02:15:13.541Z,8.70
2023-03-17T02:17:41.006Z,9.82
2023-03-17T02:20:16.071Z,7.90
2023-03-17T02:22:53.595Z,11.82
2023-03-17T02:25:23.274Z,9.20
2023-03-17T02:27:55.670Z,13.00
2023-03-17T02:30:24.267Z,12.95
2023-03-17T02:32:52.165Z,8.77
2023-03-17T02:35:23.462Z,13.77
2023-03-17T02:37:50.887Z,10.98
2023-03-17T02:40:18.813Z,11.38
2023-03-17T02:42:46.725Z,13.23
2023-03-17T02:45:15.258Z,8.93
2023-03-17T02:47:42.668Z,9.68
2023-03-17T02:50:18.867Z,10.38
2023-03-17T02:52:46.306Z,7.18
2023-03-17T02:55:14.288Z,17.10
2023-03-17T02:57:41.951Z,13.15
2023-03-17T03:00:11.913Z,7.43
2023-03-17T03:02:39.473Z,13.48
2023-03-17T03:05:08.825Z,9.25
2023-03-17T03:07:36.619Z,8.80
2023-03-17T03:10:05.549Z,13.55
2023-03-17T03:12:33.100Z,11.55
2023-03-17T03:15:00.858Z,11.27
2023-03-17T03:17:28.256Z,11.25
2023-03-17T03:19:56.166Z,13.13
2023-03-17T03:22:23.604Z,6.97
2023-03-17T03:24:51.103Z,7.63
2023-03-17T03:27:18.545Z,14.23
2023-03-17T03:29:46.433Z,16.65
2023-03-17T03:32:13.992Z,8.70
2023-03-17T03:34:41.388Z,6.93
2023-03-17T03:37:08.832Z,7.38
2023-03-17T03:39:37.442Z,8.45
2023-03-17T03:42:07.071Z,8.85
2023-03-17T03:44:34.534Z,12.80
2023-03-17T03:47:02.742Z,11.07
2023-03-17T03:49:30.379Z,16.15
2023-03-17T03:51:57.820Z,11.25
2023-03-17T03:54:25.236Z,8.35
2023-03-17T03:56:52.689Z,8.73
2023-03-17T03:59:20.129Z,11.65
2023-03-17T04:01:47.550Z,8.32
2023-03-17T04:04:14.969Z,9.43
2023-03-17T04:06:42.644Z,8.18
2023-03-17T04:09:10.020Z,9.52
2023-03-17T04:11:37.482Z,12.80
2023-03-17T04:14:06.419Z,9.73
2023-03-17T04:16:33.895Z,13.23
2023-03-17T04:19:01.706Z,12.50
2023-03-17T04:21:29.176Z,12.77
2023-03-17T04:23:56.653Z,9.95
2023-03-17T04:26:24.323Z,11.93
2023-03-17T04:28:52.523Z,13.23
2023-03-17T04:31:20.053Z,13.32
2023-03-17T04:33:48.028Z,8.00
2023-03-17T04:36:23.952Z,12.40
2023-03-17T04:38:51.739Z,14.48
2023-03-17T04:41:20.421Z,9.07
2023-03-17T04:43:47.939Z,6.97
2023-03-17T04:46:16.342Z,8.32
2023-03-17T04:48:47.050Z,12.55
2023-03-17T04:51:14.525Z,8.35
2023-03-17T04:53:41.962Z,9.40
2023-03-17T04:56:09.445Z,7.28
2023-03-17T04:58:37.191Z,8.38
2023-03-17T05:01:05.372Z,15.95
2023-03-17T05:03:33.268Z,12.65
2023-03-17T05:06:02.043Z,9.15
2023-03-17T05:08:29.596Z,8.75
2023-03-17T05:10:58.386Z,8.82
2023-03-17T05:13:26.493Z,13.40
2023-03-17T05:15:55.356Z,10.05
2023-03-17T05:18:25.080Z,9.05
2023-03-17T05:20:54.587Z,13.50
2023-03-17T05:23:23.034Z,9.90
2023-03-17T05:25:51.817Z,9.00
2023-03-17T05:28:20.902Z,10.32
2023-03-17T05:30:49.307Z,8.88
2023-03-17T05:33:17.098Z,9.35
2023-03-17T05:35:45.072Z,9.45
2023-03-17T05:38:13.369Z,9.93
2023-03-17T05:40:42.810Z,11.38
2023-03-17T05:43:10.543Z,16.10
2023-03-17T05:45:37.947Z,12.93
2023-03-17T05:48:05.492Z,9.93
2023-03-17T05:50:33.318Z,7.47
2023-03-17T05:53:01.077Z,10.73
2023-03-17T05:55:28.405Z,7.68
2023-03-17T05:57:56.095Z,14.65
2023-03-17T06:00:23.719Z,7.30
2023-03-17T06:02:51.232Z,10.02
2023-03-17T06:05:18.646Z,10.65
2023-03-17T06:07:54.696Z,7.00
2023-03-17T06:10:23.957Z,9.15
2023-03-17T06:12:51.494Z,5.13
2023-03-17T06:15:19.865Z,4.47
2023-03-17T06:17:47.502Z,7.55
2023-03-17T06:20:15.074Z,8.25
2023-03-17T06:23:00.392Z,9.20
2023-03-17T06:25:30.363Z,5.80
2023-03-17T06:27:57.933Z,11.85
2023-03-17T06:30:27.025Z,8.35
2023-03-17T06:32:54.981Z,9.73
2023-03-17T06:35:22.843Z,13.63
2023-03-17T06:37:50.269Z,7.97
2023-03-17T06:40:18.003Z,7.47
2023-03-17T06:42:45.676Z,8.23
2023-03-17T06:45:14.214Z,9.18
2023-03-17T06:47:41.645Z,9.85
2023-03-17T06:50:09.963Z,11.05
2023-03-17T06:52:38.621Z,11.07
2023-03-17T06:55:07.247Z,7.82
2023-03-17T06:57:35.331Z,8.75
2023-03-17T07:00:06.353Z,7.40
2023-03-17T07:02:34.496Z,12.50
2023-03-17T07:05:04.541Z,6.93
2023-03-17T07:07:32.486Z,9.30
2023-03-17T07:09:59.825Z,11.90
2023-03-17T07:12:27.355Z,10.27
2023-03-17T07:14:55.152Z,11.30
2023-03-17T07:17:22.565Z,8.63
2023-03-17T07:19:50.144Z,5.13
2023-03-17T07:22:17.502Z,9.85
2023-03-17T07:24:46.959Z,10.88
2023-03-17T07:27:14.996Z,11.75
2023-03-17T07:29:42.773Z,9.95
2023-03-17T07:32:10.756Z,21.90
2023-03-17T07:34:38.195Z,9.90
2023-03-17T07:37:07.038Z,15.00
2023-03-17T07:39:34.836Z,9.82
2023-03-17T07:42:02.580Z,10.32
2023-03-17T07:44:31.321Z,29.80
2023-03-17T07:46:58.992Z,10.10
2023-03-17T07:49:40.397Z,11.25
2023-03-17T07:52:11.279Z,8.10
2023-03-17T07:54:41.553Z,9.45
2023-03-17T07:57:11.038Z,9.50
2023-03-17T07:59:40.022Z,8.50
2023-03-17T08:02:14.827Z,8.50
2023-03-17T08:04:42.832Z,4.18
2023-03-17T08:07:10.476Z,4.18
2023-03-17T08:09:38.436Z,3.33
2023-03-17T08:12:06.463Z,8.18
2023-03-17T08:14:33.829Z,4.95
2023-03-17T08:17:01.282Z,5.30
2023-03-17T08:19:28.724Z,4.63
2023-03-17T08:21:56.371Z,3.33
2023-03-17T08:24:23.816Z,3.10
2023-03-17T08:26:51.254Z,3.53
2023-03-17T08:29:18.975Z,5.50
2023-03-17T08:31:46.835Z,6.65
2023-03-17T08:34:14.367Z,3.05
2023-03-17T08:36:41.888Z,4.10
2023-03-17T08:39:10.500Z,10.50
2023-03-17T08:41:38.427Z,10.15
2023-03-17T08:44:05.888Z,3.80
2023-03-17T08:46:33.427Z,3.20
2023-03-17T08:49:02.049Z,5.50
2023-03-17T08:51:32.875Z,3.58
2023-03-17T08:54:00.724Z,4.05
2023-03-17T08:56:28.738Z,8.88
2023-03-17T08:58:56.518Z,4.70
2023-03-17T09:01:24.609Z,4.30
2023-03-17T09:03:56.230Z,6.43
2023-03-17T09:06:25.346Z,5.28
2023-03-17T09:08:55.602Z,9.95
2023-03-17T09:11:29.289Z,7.65
2023-03-17T09:13:56.760Z,5.65
2023-03-17T09:16:25.093Z,4.60
2023-03-17T09:18:52.609Z,3.28
2023-03-17T09:21:20.136Z,6.53
2023-03-17T09:23:47.635Z,3.58
2023-03-17T09:26:15.236Z,7.88
2023-03-17T09:28:43.710Z,8.35
2023-03-17T09:31:11.626Z,6.10
2023-03-17T09:33:40.729Z,5.63
2023-03-17T09:36:10.060Z,6.65
2023-03-17T09:38:37.988Z,3.47
2023-03-17T09:41:05.361Z,7.63
2023-03-17T09:43:50.704Z,3.80
2023-03-17T09:46:48.204Z,5.68
2023-03-17T09:49:25.223Z,5.20
2023-03-17T09:51:53.255Z,6.63
2023-03-17T09:54:32.855Z,5.25
2023-03-17T09:57:16.616Z,3.72
2023-03-17T09:59:53.680Z,3.50
2023-03-17T10:02:28.685Z,4.35
2023-03-17T10:04:57.452Z,2.75
2023-03-17T10:07:39.352Z,4.72
2023-03-17T10:10:19.976Z,4.28
2023-03-17T10:12:53.219Z,5.40
2023-03-17T10:15:33.027Z,5.03
2023-03-17T10:18:02.477Z,6.13
2023-03-17T10:20:33.900Z,4.50
2023-03-17T10:23:04.846Z,5.22
2023-03-17T10:25:36.616Z,4.18
2023-03-17T10:28:26.322Z,3.70
2023-03-17T10:30:54.345Z,6.55
2023-03-17T10:33:22.396Z,6.05
2023-03-17T10:35:49.923Z,9.68
2023-03-17T10:38:22.549Z,6.47
2023-03-17T10:41:09.953Z,5.65
2023-03-17T10:43:48.376Z,7.40
2023-03-17T10:46:24.353Z,4.60
2023-03-17T10:49:02.275Z,5.50
2023-03-17T10:51:40.552Z,3.95
2023-03-17T10:54:11.252Z,5.93
2023-03-17T10:56:42.450Z,4.30
2023-03-17T10:59:19.854Z,5.95
2023-03-17T11:01:57.906Z,5.45
2023-03-17T11:04:37.589Z,4.75
2023-03-17T11:07:27.174Z,4.82
2023-03-17T11:09:59.381Z,6.20
2023-03-17T11:12:41.264Z,25.90
2023-03-17T11:15:16.921Z,7.05
2023-03-17T11:17:53.553Z,7.03
2023-03-17T11:20:36.251Z,5.05
2023-03-17T11:23:13.523Z,5.82
2023-03-17T11:25:44.162Z,6.60
2023-03-17T11:28:25.012Z,5.72
2023-03-17T11:31:15.415Z,7.30
2023-03-17T11:33:42.902Z,6.63
2023-03-17T11:36:18.652Z,5.90
2023-03-17T11:39:11.685Z,7.03
2023-03-17T11:41:46.078Z,4.97
2023-03-17T11:44:38.680Z,6.15
2023-03-17T11:47:15.117Z,10.32
2023-03-17T11:49:45.174Z,7.15
2023-03-17T11:52:46.397Z,5.55
2023-03-17T11:55:39.682Z,7.13
2023-03-17T11:58:22.527Z,5.38
2023-03-17T12:01:00.443Z,5.30
2023-03-17T12:03:48.649Z,11.15
2023-03-17T12:06:32.574Z,7.80
2023-03-17T12:09:20.303Z,6.75
2023-03-17T12:11:49.773Z,6.55
2023-03-17T12:14:32.704Z,9.38
2023-03-17T12:17:12.391Z,7.28
2023-03-17T12:19:58.433Z,6.63
2023-03-17T12:22:34.667Z,7.28
2023-03-17T12:25:23.019Z,8.75
2023-03-17T12:27:54.332Z,7.63
2023-03-17T12:30:35.422Z,8.30
2023-03-17T12:33:36.396Z,6.03
2023-03-17T12:36:06.501Z,5.70
2023-03-17T12:38:57.307Z,7.68
2023-03-17T12:41:31.548Z,6.63
2023-03-17T12:43:58.934Z,5.57
2023-03-17T12:46:47.518Z,10.85
2023-03-17T12:49:38.192Z,6.88
2023-03-17T12:52:32.918Z,8.10
2023-03-17T12:55:03.415Z,8.60
2023-03-17T12:57:45.892Z,6.50
2023-03-17T13:00:20.378Z,7.55
2023-03-17T13:03:07.305Z,7.45
2023-03-17T13:05:37.369Z,5.03
2023-03-17T13:08:08.365Z,6.07
2023-03-17T13:10:39.917Z,5.00
2023-03-17T13:15:37.195Z,5.05
2023-03-17T13:18:27.170Z,9.40
2023-03-17T13:20:57.720Z,6.07
2023-03-17T13:23:46.268Z,7.50
2023-03-17T13:26:22.218Z,5.65
2023-03-17T13:28:52.698Z,8.02
2023-03-17T13:31:32.144Z,8.85
2023-03-17T13:34:20.676Z,7.75
2023-03-17T13:36:48.075Z,7.50
2023-03-17T13:39:45.113Z,5.55
2023-03-17T13:42:43.414Z,10.30
2023-03-17T13:45:22.033Z,8.98
2023-03-17T13:47:53.255Z,9.57
2023-03-17T13:50:30.134Z,7.22
2023-03-17T13:53:01.821Z,12.32
2023-03-17T13:55:35.218Z,8.70
2023-03-17T13:58:11.104Z,6.30
2023-03-17T14:00:41.749Z,7.88
2023-03-17T14:03:27.480Z,7.80
2023-03-17T14:05:56.258Z,7.28
2023-03-17T14:08:29.490Z,5.78
2023-03-17T14:11:00.699Z,6.47
2023-03-17T14:13:34.295Z,8.38
2023-03-17T14:16:06.818Z,6.82
2023-03-17T14:18:40.333Z,6.90
2023-03-17T14:21:23.787Z,6.95
2023-03-17T14:23:59.325Z,6.07
2023-03-17T14:26:29.448Z,6.40
2023-03-17T14:29:02.672Z,6.75
2023-03-17T14:33:59.872Z,8.75
2023-03-17T14:36:28.748Z,5.25
2023-03-17T14:38:57.099Z,6.82
2023-03-17T14:41:27.096Z,6.18
2023-03-17T14:43:58.996Z,6.78
2023-03-17T14:46:33.682Z,5.35
2023-03-17T14:49:15.457Z,8.15
2023-03-17T14:51:43.090Z,8.23
2023-03-17T14:54:18.574Z,6.97
2023-03-17T14:56:52.216Z,6.65
2023-03-17T14:59:25.383Z,4.85
2023-03-17T15:02:02.747Z,6.50
2023-03-17T15:04:34.304Z,11.35
2023-03-17T15:07:04.496Z,6.50
2023-03-17T15:09:37.692Z,6.50
2023-03-17T15:12:17.393Z,8.00
2023-03-17T15:14:46.453Z,5.97
2023-03-17T15:17:20.752Z,8.27
2023-03-17T15:19:53.696Z,8.63
2023-03-17T15:22:34.227Z,9.05
2023-03-17T15:25:34.932Z,8.60
2023-03-17T15:28:02.305Z,9.38
2023-03-17T15:30:44.288Z,11.25
2023-03-17T15:33:37.217Z,7.32
2023-03-17T15:36:05.825Z,10.63
2023-03-17T15:38:34.416Z,7.57
2023-03-17T15:41:02.068Z,10.88
2023-03-17T15:43:30.287Z,11.40
2023-03-17T15:46:02.423Z,9.10
2023-03-17T15:48:35.172Z,8.77
2023-03-17T15:51:03.462Z,9.60
2023-03-17T15:53:32.146Z,9.57
2023-03-17T15:55:59.651Z,8.10
2023-03-17T15:58:27.574Z,9.48
2023-03-17T16:00:57.936Z,9.52
2023-03-17T16:03:29.695Z,7.85
2023-03-17T16:05:58.084Z,10.57
2023-03-17T16:08:25.646Z,9.82
2023-03-17T16:10:53.199Z,9.77
2023-03-17T16:13:21.150Z,11.95
2023-03-17T16:16:00.302Z,9.45
2023-03-17T16:18:37.650Z,12.32
2023-03-17T16:21:05.551Z,11.45
2023-03-17T16:23:37.316Z,9.95
2023-03-17T16:26:14.737Z,10.93
2023-03-17T16:28:44.730Z,8.63
2023-03-17T16:31:29.301Z,10.30
2023-03-17T16:33:57.372Z,9.93
2023-03-17T16:36:27.146Z,13.75
2023-03-17T16:38:54.615Z,11.45
2023-03-17T16:41:24.775Z,10.98
2023-03-17T16:43:57.760Z,11.35
2023-03-17T16:46:27.932Z,8.07
2023-03-17T16:48:56.204Z,8.75
2023-03-17T16:51:24.942Z,13.90
2023-03-17T16:53:52.475Z,9.95
2023-03-17T16:56:22.584Z,11.43
2023-03-17T16:58:50.184Z,14.60
2023-03-17T17:01:21.703Z,12.80
2023-03-17T17:03:49.873Z,14.00
2023-03-17T17:06:18.635Z,16.33
2023-03-17T17:08:47.418Z,14.75
2023-03-17T17:11:16.801Z,12.90
2023-03-17T17:13:46.892Z,15.13
2023-03-17T17:16:26.880Z,11.32
2023-03-17T17:18:54.915Z,13.63
2023-03-17T17:21:22.683Z,12.18
2023-03-17T17:23:52.682Z,13.52
2023-03-17T17:26:21.181Z,17.00
2023-03-17T17:28:48.726Z,13.80
2023-03-17T17:31:16.700Z,12.48
2023-03-17T17:33:44.089Z,14.77
2023-03-17T17:36:17.057Z,14.90
2023-03-17T17:38:46.191Z,13.48
2023-03-17T17:41:14.396Z,15.80
2023-03-17T17:43:42.041Z,13.88
2023-03-17T17:46:24.860Z,25.33
2023-03-17T17:48:52.710Z,25.45
2023-03-17T17:51:20.273Z,20.00
2023-03-17T17:53:47.658Z,17.75
2023-03-17T17:56:16.568Z,20.77
2023-03-17T17:58:44.948Z,20.30
2023-03-17T18:01:14.178Z,11.00
2023-03-17T18:03:42.986Z,15.07
2023-03-17T18:06:13.048Z,14.63
2023-03-17T18:08:41.548Z,13.82
2023-03-17T18:11:09.030Z,14.52
2023-03-17T18:13:38.982Z,15.23
2023-03-17T18:16:09.897Z,16.88
2023-03-17T18:18:40.586Z,23.20
2023-03-17T18:21:08.374Z,22.25
2023-03-17T18:23:36.551Z,30.25
2023-03-17T18:26:05.991Z,25.42
2023-03-17T18:28:34.094Z,17.75
2023-03-17T18:31:12.313Z,17.80
2023-03-17T18:33:41.581Z,23.77
2023-03-17T18:36:09.299Z,27.83
2023-03-17T18:38:44.968Z,36.90
2023-03-17T18:41:17.931Z,21.48
2023-03-17T18:43:45.581Z,27.35
2023-03-17T18:46:13.046Z,20.23
2023-03-17T18:48:40.571Z,21.25
2023-03-17T18:51:08.060Z,26.30
2023-03-17T18:53:35.599Z,24.45
2023-03-17T18:56:03.206Z,18.65
2023-03-17T18:58:30.784Z,22.05
2023-03-17T19:01:00.019Z,24.13
2023-03-17T19:03:28.435Z,32.33
2023-03-17T19:05:56.098Z,28.80
2023-03-17T19:08:24.260Z,24.83
2023-03-17T19:10:51.770Z,25.05
2023-03-17T19:13:19.203Z,32.55
2023-03-17T19:15:47.071Z,53.83
2023-03-17T19:18:14.504Z,50.75
2023-03-17T19:20:42.936Z,55.88
2023-03-17T19:23:10.316Z,61.55
2023-03-17T19:25:37.729Z,50.05
2023-03-17T19:28:06.296Z,42.03
2023-03-17T19:30:34.438Z,34.30
2023-03-17T19:33:02.138Z,35.83
2023-03-17T19:35:30.009Z,39.15
2023-03-17T19:37:57.628Z,32.78
2023-03-17T19:40:25.067Z,27.38
2023-03-17T19:42:52.541Z,39.13
2023-03-17T19:45:19.934Z,30.60
2023-03-17T19:47:47.667Z,28.38
2023-03-17T19:50:15.728Z,44.38
2023-03-17T19:52:43.188Z,29.27
2023-03-17T19:55:10.706Z,32.35
2023-03-17T19:57:38.113Z,30.42
2023-03-17T20:00:08.888Z,33.58
2023-03-17T20:02:37.593Z,23.60
2023-03-17T20:05:06.616Z,27.40
2023-03-17T20:07:34.152Z,161.82
2023-03-17T20:10:02.077Z,39.97
2023-03-17T20:12:32.971Z,26.25
2023-03-17T20:15:01.584Z,19.08
2023-03-17T20:17:29.039Z,18.80
2023-03-17T20:19:56.411Z,14.80
2023-03-17T20:22:24.153Z,16.60
2023-03-17T20:24:51.709Z,18.73
2023-03-17T20:27:19.779Z,19.08
2023-03-17T20:29:48.552Z,19.20
2023-03-17T20:32:17.318Z,21.25
2023-03-17T20:34:45.432Z,19.42
2023-03-17T20:37:14.206Z,18.38
2023-03-17T20:39:42.414Z,17.70
2023-03-17T20:42:14.441Z,15.35
2023-03-17T20:44:44.527Z,16.98
2023-03-17T20:47:14.316Z,13.57
2023-03-17T20:49:42.651Z,15.93
2023-03-17T20:52:13.351Z,17.13
2023-03-17T20:54:41.934Z,12.30
2023-03-17T20:57:14.044Z,67.43
2023-03-17T20:59:43.896Z,21.80
2023-03-17T21:02:17.459Z,16.00
2023-03-17T21:04:48.762Z,16.88
2023-03-17T21:07:21.444Z,16.43
2023-03-17T21:09:49.045Z,20.13
2023-03-17T21:12:19.555Z,15.13
2023-03-17T21:14:52.135Z,17.38
2023-03-17T21:17:20.071Z,21.65
2023-03-17T21:19:47.567Z,21.25
2023-03-17T21:22:15.019Z,18.60
2023-03-17T21:24:42.467Z,18.70
2023-03-17T21:27:11.330Z,16.38
2023-03-17T21:29:39.817Z,16.35
2023-03-17T21:32:08.556Z,15.90
2023-03-17T21:34:37.199Z,17.90
2023-03-17T21:37:04.729Z,24.42
2023-03-17T21:39:32.793Z,21.77
2023-03-17T21:42:01.990Z,21.88
2023-03-17T21:44:29.794Z,17.45
2023-03-17T21:47:02.454Z,15.75
2023-03-17T21:49:30.056Z,18.30
2023-03-17T21:51:57.815Z,22.52
2023-03-17T21:54:25.675Z,15.32
2023-03-17T21:56:53.463Z,15.63
2023-03-17T21:59:21.008Z,19.90
2023-03-17T22:01:52.061Z,20.58
2023-03-17T22:04:19.818Z,17.92
2023-03-17T22:06:47.286Z,20.95
2023-03-17T22:09:16.103Z,23.02
2023-03-17T22:11:44.980Z,24.55
2023-03-17T22:14:13.339Z,23.35
2023-03-17T22:16:41.061Z,23.48
2023-03-17T22:19:09.969Z,24.02
2023-03-17T22:21:37.627Z,26.35
2023-03-17T22:24:05.974Z,25.13
2023-03-17T22:26:33.535Z,27.42
2023-03-17T22:29:01.425Z,25.65
2023-03-17T22:31:29.553Z,23.13
2023-03-17T22:33:59.129Z,25.35
2023-03-17T22:36:26.743Z,31.40
2023-03-17T22:38:56.219Z,33.53
2023-03-17T22:41:25.955Z,27.20
2023-03-17T22:43:53.871Z,29.33
2023-03-17T22:46:22.205Z,24.17
2023-03-17T22:48:51.810Z,29.60
2023-03-17T22:51:22.238Z,26.20
2023-03-17T22:53:50.561Z,25.85
2023-03-17T22:56:19.390Z,30.10
2023-03-17T22:58:47.287Z,28.38
2023-03-17T23:01:16.498Z,24.52
2023-03-17T23:03:45.010Z,26.52
2023-03-17T23:06:13.274Z,30.88
2023-03-17T23:08:42.851Z,24.92
2023-03-17T23:11:13.680Z,25.92
2023-03-17T23:13:41.637Z,35.17
2023-03-17T23:16:09.899Z,26.15
2023-03-17T23:18:37.445Z,22.42
2023-03-17T23:21:06.846Z,29.08
2023-03-17T23:23:35.950Z,56.33
2023-03-17T23:26:03.586Z,47.13
2023-03-17T23:28:31.081Z,39.72
2023-03-17T23:30:58.759Z,43.08
2023-03-17T23:33:26.754Z,32.55
2023-03-17T23:35:54.240Z,31.65
2023-03-17T23:38:21.822Z,27.45
2023-03-17T23:40:49.997Z,28.13
2023-03-17T23:43:18.051Z,22.83
2023-03-17T23:45:45.552Z,35.60
2023-03-17T23:48:13.080Z,31.67
2023-03-17T23:50:42.688Z,33.72
2023-03-17T23:53:11.585Z,34.85
2023-03-17T23:55:40.119Z,26.77
2023-03-17T23:58:07.796Z,31.45
